Flight Track Log - Related Links

Times and Time Zones

All times are in EDT time to prevent confusion due to time zone crossing. See the UCA4794 flight status page for this flight to view local times or setup timezone preferences in your user account.

Time Position Orientation Groundspeed Altitude Reporting Facility
EDT Latitude Longitude Course Direction KTS MPH feet Rate Location/Type
Thu 01:30:06 PM 43.1083 -76.1161 144° Southeast 113 130 900  Level Boston Center
Thu 01:31:07 PM 43.0825 -76.1428 217° Southwest 173 199 2,200 1,328 Climbing Boston Center
Thu 01:32:08 PM 43.0408 -76.0978 142° Southeast 209 241 3,600 1,574 Climbing Boston Center
Thu 01:33:09 PM 42.9997 -76.0497 139° Southeast 199 229 5,400 1,579 Climbing Boston Center
Thu 01:33:24 PM 42.9944 -76.0431 137° Southeast 189 217 5,600 1,000 Climbing Boston Center
Thu 01:34:27 PM 42.9519 -75.9947 140° Southeast 187 215 6,700 1,113 Climbing Boston Center
Thu 01:35:00 PM 42.7927 -75.8410 144° Southeast  Level Estimated
Thu 01:35:28 PM 42.9086 -75.9464 141° Southeast 196 226 7,900  Level Boston Center
Thu 01:36:29 PM 42.8500 -75.8889 144° Southeast 212 244 9,400 1,344 Climbing Boston Center
Thu 01:37:33 PM 42.8008 -75.8372 142° Southeast 218 251 10,700 1,190 Climbing Boston Center
Thu 01:38:35 PM 42.7472 -75.7956 150° Southeast 219 252 11,900 1,131 Climbing Boston Center
Thu 01:39:35 PM 42.6919 -75.7583 154° Southeast 220 253 13,000 1,190 Climbing Boston Center
Thu 01:40:36 PM 42.6361 -75.7186 152° Southeast 225 259 14,300 960 Climbing Boston Center
Thu 01:41:40 PM 42.5814 -75.6794 152° Southeast 225 259 15,000 336 Climbing Boston Center
Thu 01:42:41 PM 42.5058 -75.6272 153° Southeast 259 298 15,000  Level Boston Center
Thu 01:43:44 PM 42.4356 -75.5769 152° Southeast 278 320 15,000  Level Boston Center
Thu 01:44:45 PM 42.3661 -75.5275 152° Southeast 281 323 15,000  Level Boston Center
Thu 01:45:49 PM 42.2975 -75.4786 152° Southeast 281 323 15,000 48 Level Boston Center
Thu 01:46:49 PM 42.2289 -75.4308 153° Southeast 279 321 15,100 48 Climbing Boston Center
Thu 01:47:53 PM 42.1469 -75.3750 153° Southeast 278 320 15,100  Level Boston Center
Thu 01:48:53 PM 42.0786 -75.3269 152° Southeast 277 319 15,100 -48 Level Boston Center
Thu 01:49:57 PM 42.0358 -75.2406 124° Southeast 286 329 15,000 -48 Descending Boston Center
Thu 01:50:57 PM 42.0000 -75.1447 117° Southeast 287 330 15,000  Level Boston Center
Thu 01:51:58 PM 41.9592 -75.0364 117° Southeast 287 330 15,000 -144 Level Boston Center
Thu 01:53:02 PM 41.9200 -74.9439 120° Southeast 285 328 14,700 -960 Descending Boston Center
Thu 01:54:03 PM 41.8561 -74.8639 137° Southeast 290 334 13,000 -1,597 Descending Boston Center
Thu 01:55:06 PM 41.7978 -74.7839 134° Southeast 296 341 11,400 -1,645 Descending Boston Center
Thu 01:56:07 PM 41.7272 -74.7156 144° Southeast 293 337 9,600 -1,672 Descending Boston Center
Thu 01:57:08 PM 41.6519 -74.6881 165° South 283 326 8,000 -1,279 Descending Boston Center
Thu 01:58:09 PM 41.5800 -74.6606 164° South 271 312 7,000 -484 Descending Boston Center
Thu 01:59:12 PM 41.5078 -74.6300 162° South 259 298 7,000 -484 Level Boston Center
Thu 02:00:13 PM 41.4356 -74.6031 164° South 267 307 6,000 -480 Descending Boston Center
Thu 02:01:17 PM 41.3608 -74.6092 184° South 260 299 6,000 48 Level Boston Center
Thu 02:02:18 PM 41.2931 -74.6358 196° South 259 298 6,100 -484 Climbing Boston Center
Thu 02:03:21 PM 41.2167 -74.6333 179° South 253 291 5,000 -976 Descending New York TRACON
Thu 02:04:21 PM 41.1500 -74.6000 159° South 251 289 4,100 -450 Descending New York TRACON
Thu 02:05:21 PM 41.0833 -74.5833 169° South 254 292 4,100 -150 Level New York TRACON
Thu 02:06:21 PM 41.0167 -74.5667 169° South 252 290 3,800 -500 Descending New York TRACON
Thu 02:07:21 PM 40.9500 -74.5333 159° South 245 282 3,100 -350 Descending New York TRACON
Thu 02:08:21 PM 40.8833 -74.5000 159° South 248 285 3,100  Level New York TRACON
Thu 02:09:15 PM 40.8333 -74.4667 153° Southeast 244 281 3,100  Level New York TRACON
Thu 02:09:48 PM 40.7953 -74.4539 166° South 247 284 3,100 -438 Level New York Center
Thu 02:10:51 PM 40.7300 -74.4158 156° South 240 276 2,400 -484 Descending New York Center
Thu 02:11:52 PM 40.7114 -74.3397 108° East 221 254 2,100 -488 Descending New York Center
Thu 02:12:54 PM 40.7075 -74.2683 94° East 187 215 1,400 -703 Descending New York Center
Thu 02:14:00 PM 40.7050 -74.2106 93° East 162 186 600 -472 Descending New York Center
Thu 02:15:01 PM 40.7017 -74.1594 95° East 157 181 400 -197 Descending New York Center
Thu 02:17:00 PM 40.6925 -74.1687 217° Southwest  Level Estimated

Login

Don't have an account? Register now (free) for customized features, flight alerts, and more!